createdAt,value
2023-01-25T00:00:44.110Z,4.25
2023-01-25T00:03:10.996Z,4.30
2023-01-25T00:05:37.905Z,4.22
2023-01-25T00:08:04.921Z,4.55
2023-01-25T00:10:31.765Z,4.47
2023-01-25T00:12:58.491Z,4.15
2023-01-25T00:15:25.301Z,4.50
2023-01-25T00:17:52.060Z,4.38
2023-01-25T00:20:19.073Z,3.95
2023-01-25T00:22:46.136Z,3.90
2023-01-25T00:25:12.915Z,3.97
2023-01-25T00:27:40.207Z,3.88
2023-01-25T00:30:07.648Z,4.00
2023-01-25T00:33:02.664Z,4.15
2023-01-25T00:35:32.664Z,4.30
2023-01-25T00:38:02.978Z,4.00
2023-01-25T00:40:29.826Z,4.53
2023-01-25T00:43:00.825Z,4.32
2023-01-25T00:45:27.808Z,4.55
2023-01-25T00:47:56.385Z,4.10
2023-01-25T00:50:23.387Z,4.43
2023-01-25T00:52:50.133Z,4.45
2023-01-25T00:55:17.093Z,4.18
2023-01-25T00:57:43.862Z,4.32
2023-01-25T01:00:11.374Z,4.43
2023-01-25T01:02:38.489Z,4.47
2023-01-25T01:05:06.172Z,4.38
2023-01-25T01:07:33.222Z,4.70
2023-01-25T01:10:00.359Z,4.40
2023-01-25T01:12:27.217Z,4.70
2023-01-25T01:14:54.004Z,4.35
2023-01-25T01:17:20.988Z,4.65
2023-01-25T01:19:47.853Z,4.70
2023-01-25T01:22:14.784Z,4.78
2023-01-25T01:24:42.364Z,4.40
2023-01-25T01:27:09.191Z,4.55
2023-01-25T01:29:35.959Z,4.63
2023-01-25T01:32:02.880Z,4.43
2023-01-25T01:34:29.885Z,4.53
2023-01-25T01:36:56.749Z,4.78
2023-01-25T01:39:24.171Z,4.78
2023-01-25T01:41:51.067Z,5.03
2023-01-25T01:44:22.729Z,4.57
2023-01-25T01:46:58.411Z,4.80
2023-01-25T01:49:31.837Z,4.78
2023-01-25T01:52:12.212Z,4.60
2023-01-25T01:54:47.169Z,4.78
2023-01-25T01:57:22.212Z,4.60
2023-01-25T01:59:54.351Z,4.15
2023-01-25T02:02:24.033Z,4.18
2023-01-25T02:04:51.894Z,4.70
2023-01-25T02:07:25.586Z,4.70
2023-01-25T02:09:52.362Z,4.80
2023-01-25T02:12:22.506Z,5.07
2023-01-25T02:14:51.867Z,4.45
2023-01-25T02:17:27.610Z,4.80
2023-01-25T02:20:01.265Z,4.40
2023-01-25T02:22:43.492Z,4.60
2023-01-25T02:25:12.493Z,3.92
2023-01-25T02:27:54.568Z,4.00
2023-01-25T02:30:22.631Z,4.30
2023-01-25T02:32:51.235Z,4.40
2023-01-25T02:35:24.651Z,4.60
2023-01-25T02:37:52.219Z,4.25
2023-01-25T02:40:19.233Z,4.22
2023-01-25T02:42:47.138Z,4.15
2023-01-25T02:45:19.574Z,3.80
2023-01-25T02:47:46.467Z,4.05
2023-01-25T02:50:15.126Z,4.25
2023-01-25T02:52:42.732Z,4.10
2023-01-25T02:55:10.100Z,3.90
2023-01-25T02:57:38.945Z,4.32
2023-01-25T03:00:07.585Z,3.80
2023-01-25T03:02:34.710Z,4.32
2023-01-25T03:05:01.660Z,4.45
2023-01-25T03:07:28.704Z,4.32
2023-01-25T03:09:55.838Z,4.15
2023-01-25T03:12:23.284Z,4.50
2023-01-25T03:14:50.192Z,4.28
2023-01-25T03:17:18.789Z,4.22
2023-01-25T03:19:46.083Z,4.35
2023-01-25T03:22:13.162Z,4.07
2023-01-25T03:24:40.558Z,4.57
2023-01-25T03:27:10.623Z,4.63
2023-01-25T03:29:47.051Z,4.30
2023-01-25T03:32:18.264Z,3.90
2023-01-25T03:34:45.163Z,4.35
2023-01-25T03:37:11.981Z,3.80
2023-01-25T03:39:40.694Z,4.00
2023-01-25T03:42:08.214Z,4.03
2023-01-25T03:44:35.122Z,4.07
2023-01-25T03:47:02.488Z,4.00
2023-01-25T03:49:30.092Z,3.90
2023-01-25T03:51:58.105Z,3.08
2023-01-25T03:54:33.373Z,3.95
2023-01-25T03:57:00.848Z,3.83
2023-01-25T03:59:28.778Z,3.60
2023-01-25T04:01:55.948Z,3.83
2023-01-25T04:04:23.024Z,3.90
2023-01-25T04:06:50.436Z,3.85
2023-01-25T04:09:18.032Z,3.60
2023-01-25T04:11:51.016Z,4.05
2023-01-25T04:14:25.475Z,3.53
2023-01-25T04:17:05.414Z,3.67
2023-01-25T04:19:42.485Z,3.38
2023-01-25T04:24:43.623Z,3.28
2023-01-25T04:27:10.558Z,3.53
2023-01-25T04:29:50.081Z,3.00
2023-01-25T04:32:20.053Z,3.45
2023-01-25T04:34:46.976Z,4.80
2023-01-25T04:37:17.642Z,3.85
2023-01-25T04:39:51.830Z,4.10
2023-01-25T04:42:19.575Z,4.15
2023-01-25T04:47:16.995Z,3.53
2023-01-25T04:49:43.820Z,3.88
2023-01-25T04:52:11.233Z,3.97
2023-01-25T04:54:38.071Z,4.00
2023-01-25T04:57:05.528Z,4.43
2023-01-25T04:59:32.629Z,5.15
2023-01-25T05:01:59.431Z,4.72
2023-01-25T05:04:27.846Z,4.97
2023-01-25T05:06:54.860Z,5.60
2023-01-25T05:09:21.867Z,5.82
2023-01-25T05:11:48.793Z,6.00
2023-01-25T05:14:21.841Z,4.95
2023-01-25T05:16:50.310Z,4.82
2023-01-25T05:19:17.657Z,5.90
2023-01-25T05:21:59.348Z,6.50
2023-01-25T05:24:41.812Z,5.78
2023-01-25T05:27:13.634Z,5.57
2023-01-25T05:30:07.630Z,4.80
2023-01-25T05:32:43.409Z,4.72
2023-01-25T05:35:10.686Z,5.10
2023-01-25T05:37:38.842Z,4.95
2023-01-25T05:40:09.370Z,5.30
2023-01-25T05:42:38.599Z,5.18
2023-01-25T05:45:11.483Z,5.65
2023-01-25T05:47:39.648Z,5.47
2023-01-25T05:50:08.793Z,5.65
2023-01-25T05:52:50.652Z,5.90
2023-01-25T05:55:17.871Z,6.35
2023-01-25T05:57:44.697Z,6.68
2023-01-25T06:00:12.095Z,8.55
2023-01-25T06:05:14.072Z,8.10
2023-01-25T06:07:41.122Z,8.05
2023-01-25T06:10:08.885Z,8.00
2023-01-25T06:12:36.945Z,7.90
2023-01-25T06:15:03.979Z,7.20
2023-01-25T06:17:30.826Z,7.05
2023-01-25T06:20:16.409Z,6.65
2023-01-25T06:23:18.639Z,6.10
2023-01-25T06:25:45.466Z,5.85
2023-01-25T06:28:12.260Z,6.30
2023-01-25T06:30:39.064Z,8.23
2023-01-25T06:33:05.891Z,7.00
2023-01-25T06:35:33.741Z,6.88
2023-01-25T06:38:01.242Z,9.02
2023-01-25T06:40:28.602Z,8.45
2023-01-25T06:42:55.487Z,8.35
2023-01-25T06:45:22.354Z,8.43
2023-01-25T06:47:50.414Z,7.75
2023-01-25T06:50:17.318Z,7.82
2023-01-25T06:52:51.865Z,6.90
2023-01-25T06:55:18.800Z,7.05
2023-01-25T06:57:45.622Z,6.18
2023-01-25T07:00:13.019Z,7.25
2023-01-25T07:02:39.927Z,7.57
2023-01-25T07:05:07.780Z,8.10
2023-01-25T07:07:34.801Z,7.97
2023-01-25T07:10:02.230Z,7.25
2023-01-25T07:12:30.331Z,7.95
2023-01-25T07:14:57.351Z,8.00
2023-01-25T07:17:24.170Z,7.97
2023-01-25T07:19:50.945Z,7.95
2023-01-25T07:22:18.046Z,11.73
2023-01-25T07:24:50.051Z,15.57
2023-01-25T07:27:20.743Z,10.40
2023-01-25T07:29:47.669Z,9.55
2023-01-25T07:32:14.605Z,8.93
2023-01-25T07:34:41.459Z,9.10
2023-01-25T07:37:09.339Z,8.80
2023-01-25T07:39:36.553Z,8.88
2023-01-25T07:42:03.518Z,7.95
2023-01-25T07:44:32.240Z,9.57
2023-01-25T07:47:09.273Z,7.28
2023-01-25T07:49:36.425Z,6.95
2023-01-25T07:52:03.576Z,7.03
2023-01-25T07:54:30.326Z,7.45
2023-01-25T07:56:57.877Z,7.13
2023-01-25T07:59:25.119Z,7.20
2023-01-25T08:01:51.981Z,7.00
2023-01-25T08:04:18.987Z,7.05
2023-01-25T08:06:45.703Z,7.50
2023-01-25T08:09:19.765Z,8.30
2023-01-25T08:11:47.362Z,10.10
2023-01-25T08:14:14.163Z,8.90
2023-01-25T08:16:41.199Z,8.00
2023-01-25T08:19:11.064Z,9.38
2023-01-25T08:21:37.991Z,9.33
2023-01-25T08:24:07.114Z,8.00
2023-01-25T08:26:36.267Z,7.20
2023-01-25T08:29:03.729Z,7.53
2023-01-25T08:31:33.274Z,7.38
2023-01-25T08:34:00.660Z,7.30
2023-01-25T08:36:28.304Z,7.18
2023-01-25T08:39:00.241Z,7.15
2023-01-25T08:41:29.098Z,7.72
2023-01-25T08:43:56.294Z,7.28
2023-01-25T08:46:25.194Z,7.47
2023-01-25T08:48:55.969Z,8.00
2023-01-25T08:51:24.381Z,7.05
2023-01-25T08:53:51.385Z,6.47
2023-01-25T08:56:19.003Z,7.60
2023-01-25T08:58:48.234Z,6.75
2023-01-25T09:01:21.779Z,6.90
2023-01-25T09:03:50.739Z,8.32
2023-01-25T09:06:19.866Z,7.65
2023-01-25T09:08:47.278Z,7.55
2023-01-25T09:11:20.269Z,7.28
2023-01-25T09:13:48.852Z,7.40
2023-01-25T09:16:22.777Z,7.10
2023-01-25T09:18:50.950Z,7.13
2023-01-25T09:21:18.530Z,7.18
2023-01-25T09:24:05.520Z,6.68
2023-01-25T09:26:34.706Z,6.68
2023-01-25T09:29:01.606Z,7.35
2023-01-25T09:31:29.518Z,7.32
2023-01-25T09:33:59.974Z,7.07
2023-01-25T09:36:26.824Z,7.22
2023-01-25T09:38:55.722Z,7.03
2023-01-25T09:41:41.570Z,7.97
2023-01-25T09:44:17.754Z,8.65
2023-01-25T09:46:49.098Z,7.28
2023-01-25T09:49:18.841Z,7.28
2023-01-25T09:52:07.203Z,7.25
2023-01-25T09:54:47.071Z,6.60
2023-01-25T09:57:42.344Z,6.93
2023-01-25T10:00:17.944Z,6.78
2023-01-25T10:02:51.926Z,7.72
2023-01-25T10:05:23.061Z,7.82
2023-01-25T10:07:54.935Z,10.95
2023-01-25T10:10:30.058Z,8.45
2023-01-25T10:12:56.944Z,6.38
2023-01-25T10:15:32.919Z,7.50
2023-01-25T10:18:17.163Z,6.50
2023-01-25T10:20:50.015Z,7.18
2023-01-25T10:23:25.646Z,7.90
2023-01-25T10:26:00.652Z,7.78
2023-01-25T10:28:36.574Z,6.22
2023-01-25T10:31:44.366Z,6.10
2023-01-25T10:34:17.762Z,5.15
2023-01-25T10:36:49.404Z,5.65
2023-01-25T10:39:17.855Z,5.72
2023-01-25T10:41:50.622Z,5.75
2023-01-25T10:44:28.220Z,6.70
2023-01-25T10:47:04.230Z,6.10
2023-01-25T10:49:46.349Z,5.72
2023-01-25T10:52:16.498Z,5.63
2023-01-25T10:54:43.880Z,5.30
2023-01-25T10:57:17.252Z,5.70
2023-01-25T10:59:52.200Z,5.43
2023-01-25T11:02:37.258Z,5.68
2023-01-25T11:05:19.089Z,5.07
2023-01-25T11:07:46.909Z,4.70
2023-01-25T11:10:37.803Z,4.88
2023-01-25T11:13:13.529Z,5.57
2023-01-25T11:15:41.813Z,5.53
2023-01-25T11:18:20.312Z,5.93
2023-01-25T11:20:47.592Z,6.47
2023-01-25T11:23:26.433Z,6.00
2023-01-25T11:25:53.480Z,5.38
2023-01-25T11:28:23.181Z,5.43
2023-01-25T11:30:52.680Z,5.60
2023-01-25T11:33:21.770Z,4.93
2023-01-25T11:35:58.679Z,5.32
2023-01-25T11:38:25.782Z,5.40
2023-01-25T11:41:13.287Z,6.03
2023-01-25T11:43:46.163Z,5.13
2023-01-25T11:46:26.064Z,5.55
2023-01-25T11:49:09.933Z,5.60
2023-01-25T11:52:15.558Z,5.07
2023-01-25T11:54:45.537Z,5.43
2023-01-25T11:57:36.885Z,5.00
2023-01-25T12:00:16.834Z,5.28
2023-01-25T12:03:05.175Z,5.03
2023-01-25T12:05:56.824Z,4.80
2023-01-25T12:08:41.211Z,5.93
2023-01-25T12:11:13.925Z,6.63
2023-01-25T12:14:05.647Z,5.22
2023-01-25T12:16:47.655Z,4.25
2023-01-25T12:19:34.824Z,4.43
2023-01-25T12:22:07.733Z,4.65
2023-01-25T12:24:59.959Z,5.00
2023-01-25T12:27:44.961Z,5.20
2023-01-25T12:30:15.766Z,4.60
2023-01-25T12:32:59.508Z,4.95
2023-01-25T12:35:43.634Z,4.97
2023-01-25T12:38:26.149Z,5.10
2023-01-25T12:40:58.407Z,4.80
2023-01-25T12:43:33.058Z,5.38
2023-01-25T12:46:05.155Z,5.13
2023-01-25T12:48:37.499Z,5.20
2023-01-25T12:51:04.850Z,5.35
2023-01-25T12:53:41.033Z,5.05
2023-01-25T12:56:23.561Z,5.15
2023-01-25T12:58:56.643Z,4.82
2023-01-25T13:01:35.886Z,4.97
2023-01-25T13:04:02.977Z,4.97
2023-01-25T13:06:53.108Z,5.10
2023-01-25T13:10:02.158Z,5.30
2023-01-25T13:12:29.243Z,5.20
2023-01-25T13:14:56.303Z,4.90
2023-01-25T13:17:38.207Z,4.95
2023-01-25T13:20:38.888Z,4.97
2023-01-25T13:23:34.596Z,4.53
2023-01-25T13:26:32.321Z,4.95
2023-01-25T13:29:00.414Z,5.10
2023-01-25T13:31:52.030Z,4.53
2023-01-25T13:34:39.322Z,4.13
2023-01-25T13:37:26.016Z,4.43
2023-01-25T13:40:06.507Z,4.20
2023-01-25T13:42:36.379Z,4.10
2023-01-25T13:45:15.250Z,4.45
2023-01-25T13:47:44.012Z,3.88
2023-01-25T13:50:23.577Z,4.53
2023-01-25T13:52:56.552Z,4.20
2023-01-25T13:55:23.686Z,4.10
2023-01-25T13:57:51.724Z,4.70
2023-01-25T14:00:19.362Z,4.38
2023-01-25T14:02:54.708Z,4.35
2023-01-25T14:05:24.843Z,4.10
2023-01-25T14:07:54.536Z,4.45
2023-01-25T14:10:27.790Z,4.20
2023-01-25T14:13:00.463Z,4.10
2023-01-25T14:15:32.228Z,3.75
2023-01-25T14:18:05.067Z,3.95
2023-01-25T14:20:32.320Z,4.00
2023-01-25T14:22:59.326Z,4.78
2023-01-25T14:25:26.417Z,4.78
2023-01-25T14:28:00.379Z,4.40
2023-01-25T14:30:30.677Z,3.90
2023-01-25T14:33:00.890Z,3.85
2023-01-25T14:35:55.212Z,4.10
2023-01-25T14:38:37.954Z,3.90
2023-01-25T14:41:28.223Z,4.15
2023-01-25T14:43:58.258Z,4.05
2023-01-25T14:46:28.344Z,4.00
2023-01-25T14:49:07.527Z,4.65
2023-01-25T14:51:37.929Z,4.50
2023-01-25T14:54:13.722Z,4.45
2023-01-25T14:56:47.188Z,4.10
2023-01-25T14:59:35.720Z,4.90
2023-01-25T15:02:40.846Z,4.50
2023-01-25T15:05:21.485Z,4.53
2023-01-25T15:10:20.573Z,4.43
2023-01-25T15:13:18.191Z,4.75
2023-01-25T15:15:54.392Z,5.10
2023-01-25T15:18:40.186Z,5.20
2023-01-25T15:21:11.848Z,4.82
2023-01-25T15:23:41.197Z,4.93
2023-01-25T15:26:18.799Z,5.68
2023-01-25T15:28:46.003Z,4.75
2023-01-25T15:31:22.269Z,4.43
2023-01-25T15:33:49.442Z,4.88
2023-01-25T15:36:17.708Z,4.82
2023-01-25T15:38:45.439Z,4.75
2023-01-25T15:41:13.848Z,4.32
2023-01-25T15:43:41.425Z,4.53
2023-01-25T15:46:15.574Z,4.70
2023-01-25T15:48:44.510Z,4.70
2023-01-25T15:51:12.916Z,4.72
2023-01-25T15:53:39.931Z,4.88
2023-01-25T15:56:13.704Z,4.95
2023-01-25T15:58:42.983Z,4.82
2023-01-25T16:01:10.312Z,6.00
2023-01-25T16:03:41.457Z,4.93
2023-01-25T16:06:29.080Z,5.05
2023-01-25T16:08:56.126Z,5.03
2023-01-25T16:11:23.102Z,5.07
2023-01-25T16:13:50.043Z,5.20
2023-01-25T16:16:22.984Z,5.20
2023-01-25T16:18:50.124Z,5.10
2023-01-25T16:21:17.316Z,5.00
2023-01-25T16:23:44.395Z,4.93
2023-01-25T16:26:23.091Z,5.38
2023-01-25T16:28:50.272Z,4.68
2023-01-25T16:31:31.134Z,4.70
2023-01-25T16:33:59.525Z,5.00
2023-01-25T16:36:26.613Z,4.50
2023-01-25T16:38:53.601Z,4.60
2023-01-25T16:41:20.620Z,4.90
2023-01-25T16:43:49.006Z,4.90
2023-01-25T16:46:21.897Z,4.55
2023-01-25T16:48:51.132Z,4.70
2023-01-25T16:51:21.479Z,4.50
2023-01-25T16:53:49.694Z,5.25
2023-01-25T16:56:23.036Z,5.53
2023-01-25T16:58:53.777Z,4.80
2023-01-25T17:01:22.769Z,5.47
2023-01-25T17:03:50.881Z,5.40
2023-01-25T17:06:21.476Z,5.30
2023-01-25T17:08:49.629Z,7.40
2023-01-25T17:11:22.159Z,5.68
2023-01-25T17:13:50.762Z,5.50
2023-01-25T17:16:22.923Z,5.30
2023-01-25T17:19:01.691Z,5.22
2023-01-25T17:21:29.174Z,6.88
2023-01-25T17:23:58.323Z,5.35
2023-01-25T17:26:26.725Z,5.18
2023-01-25T17:28:55.899Z,5.13
2023-01-25T17:31:28.286Z,4.88
2023-01-25T17:33:56.220Z,4.82
2023-01-25T17:36:23.658Z,5.18
2023-01-25T17:38:50.849Z,5.28
2023-01-25T17:41:17.742Z,5.30
2023-01-25T17:43:44.750Z,5.20
2023-01-25T17:46:26.075Z,4.85
2023-01-25T17:48:54.787Z,5.30
2023-01-25T17:51:24.998Z,5.50
2023-01-25T17:53:52.768Z,5.20
2023-01-25T17:56:19.893Z,5.57
2023-01-25T17:58:47.029Z,5.47
2023-01-25T18:01:17.165Z,5.35
2023-01-25T18:03:45.298Z,5.60
2023-01-25T18:06:16.760Z,5.38
2023-01-25T18:08:48.821Z,5.80
2023-01-25T18:11:21.370Z,5.40
2023-01-25T18:13:51.003Z,5.70
2023-01-25T18:16:21.820Z,8.40
2023-01-25T18:18:50.521Z,5.85
2023-01-25T18:21:24.041Z,5.88
2023-01-25T18:24:04.586Z,5.43
2023-01-25T18:29:45.514Z,5.68
2023-01-25T18:32:13.710Z,5.60
2023-01-25T18:34:40.648Z,6.13
2023-01-25T18:37:18.833Z,6.22
2023-01-25T18:39:52.952Z,6.05
2023-01-25T18:42:21.469Z,5.90
2023-01-25T18:44:48.598Z,5.60
2023-01-25T18:47:20.153Z,5.50
2023-01-25T18:49:49.313Z,5.30
2023-01-25T18:52:17.614Z,5.45
2023-01-25T18:54:45.064Z,5.30
2023-01-25T18:57:13.336Z,5.63
2023-01-25T18:59:41.087Z,5.45
2023-01-25T19:02:10.116Z,5.47
2023-01-25T19:04:36.967Z,5.60
2023-01-25T19:07:04.759Z,6.57
2023-01-25T19:09:31.903Z,5.75
2023-01-25T19:11:58.882Z,5.75
2023-01-25T19:14:26.040Z,6.15
2023-01-25T19:16:53.170Z,6.07
2023-01-25T19:19:20.891Z,5.88
2023-01-25T19:21:48.070Z,5.90
2023-01-25T19:24:18.712Z,6.10
2023-01-25T19:26:47.293Z,6.10
2023-01-25T19:29:15.778Z,5.82
2023-01-25T19:31:42.579Z,6.63
2023-01-25T19:34:09.398Z,6.47
2023-01-25T19:36:40.576Z,6.97
2023-01-25T19:39:10.540Z,6.85
2023-01-25T19:41:38.882Z,7.03
2023-01-25T19:44:07.210Z,7.25
2023-01-25T19:46:35.801Z,6.97
2023-01-25T19:49:05.540Z,7.50
2023-01-25T19:51:36.862Z,7.75
2023-01-25T19:54:07.281Z,8.45
2023-01-25T19:59:08.711Z,8.75
2023-01-25T20:01:36.647Z,7.88
2023-01-25T20:04:05.960Z,8.85
2023-01-25T20:06:33.040Z,9.25
2023-01-25T20:08:59.744Z,8.35
2023-01-25T20:11:29.231Z,8.85
2023-01-25T20:13:59.207Z,8.88
2023-01-25T20:16:27.334Z,8.27
2023-01-25T20:18:56.263Z,8.68
2023-01-25T20:21:24.241Z,7.97
2023-01-25T20:23:55.003Z,8.93
2023-01-25T20:26:25.064Z,8.27
2023-01-25T20:28:53.666Z,11.30
2023-01-25T20:31:35.484Z,8.65
2023-01-25T20:34:05.507Z,8.82
2023-01-25T20:36:34.916Z,8.70
2023-01-25T20:39:02.435Z,8.95
2023-01-25T20:41:29.240Z,8.07
2023-01-25T20:44:01.953Z,8.02
2023-01-25T20:46:29.714Z,10.75
2023-01-25T20:48:56.516Z,9.20
2023-01-25T20:51:23.953Z,9.60
2023-01-25T20:53:51.379Z,9.23
2023-01-25T20:56:19.146Z,11.02
2023-01-25T20:58:50.387Z,8.60
2023-01-25T21:01:17.344Z,8.20
2023-01-25T21:03:44.250Z,7.95
2023-01-25T21:06:12.093Z,9.40
2023-01-25T21:08:39.290Z,8.50
2023-01-25T21:11:06.532Z,8.55
2023-01-25T21:13:33.815Z,7.95
2023-01-25T21:16:04.267Z,8.25
2023-01-25T21:18:36.964Z,7.95
2023-01-25T21:21:08.062Z,8.30
2023-01-25T21:23:36.389Z,8.60
2023-01-25T21:26:05.654Z,7.88
2023-01-25T21:28:33.899Z,8.27
2023-01-25T21:31:17.806Z,8.18
2023-01-25T21:33:45.207Z,8.65
2023-01-25T21:36:16.003Z,8.48
2023-01-25T21:38:47.918Z,8.55
2023-01-25T21:41:17.657Z,8.30
2023-01-25T21:44:02.933Z,8.20
2023-01-25T21:46:29.751Z,8.38
2023-01-25T21:49:20.157Z,8.43
2023-01-25T21:51:52.329Z,9.80
2023-01-25T21:54:21.556Z,8.43
2023-01-25T21:56:49.679Z,8.02
2023-01-25T21:59:16.393Z,8.07
2023-01-25T22:01:43.814Z,9.00
2023-01-25T22:04:11.618Z,8.63
2023-01-25T22:06:38.922Z,7.78
2023-01-25T22:09:06.575Z,8.25
2023-01-25T22:11:34.112Z,8.27
2023-01-25T22:14:01.080Z,8.38
2023-01-25T22:16:29.362Z,8.23
2023-01-25T22:18:56.686Z,9.23
2023-01-25T22:21:28.645Z,8.40
2023-01-25T22:23:55.481Z,7.70
2023-01-25T22:26:27.254Z,7.68
2023-01-25T22:28:58.732Z,10.38
2023-01-25T22:31:30.611Z,8.20
2023-01-25T22:33:59.150Z,9.27
2023-01-25T22:36:27.809Z,8.93
2023-01-25T22:38:57.900Z,7.88
2023-01-25T22:41:27.830Z,8.98
2023-01-25T22:43:54.953Z,7.60
2023-01-25T22:46:24.000Z,10.27
2023-01-25T22:48:51.329Z,7.93
2023-01-25T22:51:27.238Z,7.57
2023-01-25T22:53:55.355Z,7.72
2023-01-25T22:56:25.705Z,8.52
2023-01-25T23:01:27.911Z,7.82
2023-01-25T23:03:54.630Z,8.05
2023-01-25T23:06:24.455Z,9.75
2023-01-25T23:08:54.150Z,7.53
2023-01-25T23:11:22.757Z,8.45
2023-01-25T23:14:08.781Z,8.27
2023-01-25T23:16:35.857Z,10.52
2023-01-25T23:19:04.314Z,8.00
2023-01-25T23:21:31.513Z,10.40
2023-01-25T23:24:02.801Z,9.15
2023-01-25T23:26:37.859Z,7.97
2023-01-25T23:29:11.950Z,7.15
2023-01-25T23:31:39.155Z,8.00
2023-01-25T23:34:07.078Z,7.70
2023-01-25T23:36:38.875Z,7.88
2023-01-25T23:39:05.897Z,7.65
2023-01-25T23:41:32.766Z,7.13
2023-01-25T23:44:00.872Z,7.53
2023-01-25T23:46:30.593Z,7.13
2023-01-25T23:48:57.375Z,7.20
2023-01-25T23:51:24.277Z,7.15
2023-01-25T23:53:53.421Z,7.70
2023-01-25T23:56:21.830Z,8.18
2023-01-25T23:58:49.006Z,7.28
